createdAt,value
2023-04-15T00:00:59.757Z,7.21
2023-04-15T00:03:28.890Z,7.22
2023-04-15T00:05:58.744Z,7.24
2023-04-15T00:08:26.776Z,7.26
2023-04-15T00:10:54.792Z,7.30
2023-04-15T00:13:22.853Z,7.34
2023-04-15T00:15:50.796Z,7.38
2023-04-15T00:18:18.750Z,7.42
2023-04-15T00:20:47.268Z,7.46
2023-04-15T00:23:15.176Z,7.50
2023-04-15T00:25:43.092Z,7.51
2023-04-15T00:28:11.279Z,7.51
2023-04-15T00:30:39.356Z,7.50
2023-04-15T00:33:08.057Z,7.49
2023-04-15T00:35:39.392Z,7.46
2023-04-15T00:38:10.077Z,7.42
2023-04-15T00:40:38.264Z,7.36
2023-04-15T00:43:07.148Z,7.30
2023-04-15T00:45:35.092Z,7.23
2023-04-15T00:48:03.849Z,7.19
2023-04-15T00:50:32.011Z,7.14
2023-04-15T00:53:00.129Z,7.11
2023-04-15T00:55:28.130Z,7.08
2023-04-15T00:57:57.536Z,7.08
2023-04-15T01:00:25.688Z,7.02
2023-04-15T01:02:53.978Z,7.01
2023-04-15T01:05:22.419Z,6.98
2023-04-15T01:07:50.738Z,6.96
2023-04-15T01:10:18.785Z,6.94
2023-04-15T01:12:47.081Z,6.93
2023-04-15T01:15:16.210Z,6.92
2023-04-15T01:17:44.229Z,6.92
2023-04-15T01:20:12.721Z,6.90
2023-04-15T01:22:41.431Z,6.90
2023-04-15T01:25:18.435Z,6.89
2023-04-15T01:27:46.592Z,6.88
2023-04-15T01:30:14.611Z,6.87
2023-04-15T01:32:42.686Z,6.86
2023-04-15T01:35:10.786Z,6.84
2023-04-15T01:37:38.786Z,6.82
2023-04-15T01:40:08.092Z,6.81
2023-04-15T01:42:37.717Z,6.81
2023-04-15T01:45:07.327Z,6.82
2023-04-15T01:47:35.336Z,6.84
2023-04-15T01:50:03.598Z,6.87
2023-04-15T01:52:32.229Z,6.91
2023-04-15T01:55:00.488Z,6.95
2023-04-15T01:57:28.525Z,6.99
2023-04-15T01:59:56.777Z,7.04
2023-04-15T02:02:25.038Z,7.08
2023-04-15T02:04:53.652Z,7.12
2023-04-15T02:07:21.978Z,7.14
2023-04-15T02:09:50.219Z,7.16
2023-04-15T02:12:18.212Z,7.15
2023-04-15T02:14:46.284Z,7.14
2023-04-15T02:17:14.367Z,7.12
2023-04-15T02:19:44.659Z,7.09
2023-04-15T02:22:19.060Z,7.05
2023-04-15T02:24:47.771Z,7.02
2023-04-15T02:27:17.854Z,6.98
2023-04-15T02:29:47.592Z,6.94
2023-04-15T02:32:15.620Z,6.89
2023-04-15T02:34:43.580Z,6.86
2023-04-15T02:37:13.708Z,6.85
2023-04-15T02:39:41.755Z,6.86
2023-04-15T02:42:11.623Z,6.87
2023-04-15T02:44:39.547Z,6.91
2023-04-15T02:47:07.569Z,6.94
2023-04-15T02:49:35.898Z,6.96
2023-04-15T02:52:03.865Z,6.92
2023-04-15T02:54:34.075Z,6.82
2023-04-15T02:57:02.252Z,6.72
2023-04-15T02:59:30.267Z,6.63
2023-04-15T03:02:01.087Z,6.56
2023-04-15T03:04:31.007Z,6.56
2023-04-15T03:06:59.080Z,6.56
2023-04-15T03:09:27.651Z,6.57
2023-04-15T03:11:57.055Z,6.58
2023-04-15T03:14:25.806Z,6.60
2023-04-15T03:16:53.855Z,6.61
2023-04-15T03:19:21.763Z,6.64
2023-04-15T03:21:49.649Z,6.69
2023-04-15T03:24:18.617Z,6.71
2023-04-15T03:26:46.647Z,6.72
2023-04-15T03:29:17.084Z,6.75
2023-04-15T03:31:45.028Z,6.75
2023-04-15T03:34:12.973Z,6.71
2023-04-15T03:36:41.500Z,6.68
2023-04-15T03:39:09.593Z,6.67
2023-04-15T03:41:37.621Z,6.64
2023-04-15T03:44:05.733Z,6.61
2023-04-15T03:46:33.683Z,6.61
2023-04-15T03:49:02.479Z,6.57
2023-04-15T03:51:31.599Z,6.53
2023-04-15T03:53:59.680Z,6.50
2023-04-15T03:56:27.901Z,6.46
2023-04-15T03:58:55.930Z,6.43
2023-04-15T04:01:23.888Z,6.45
2023-04-15T04:03:52.481Z,6.43
2023-04-15T04:06:20.911Z,6.39
2023-04-15T04:08:48.904Z,6.37
2023-04-15T04:11:17.367Z,6.34
2023-04-15T04:13:45.462Z,6.27
2023-04-15T04:16:13.560Z,6.21
2023-04-15T04:18:41.644Z,6.17
2023-04-15T04:21:10.163Z,6.14
2023-04-15T04:23:38.118Z,6.08
2023-04-15T04:26:06.262Z,6.02
2023-04-15T04:28:35.422Z,5.95
2023-04-15T04:31:03.367Z,5.90
2023-04-15T04:33:31.314Z,5.88
2023-04-15T04:35:59.355Z,5.87
2023-04-15T04:38:27.296Z,5.88
2023-04-15T04:40:55.416Z,5.91
2023-04-15T04:43:23.381Z,5.95
2023-04-15T04:45:51.520Z,6.01
2023-04-15T04:48:20.076Z,6.09
2023-04-15T04:50:48.468Z,6.16
2023-04-15T04:53:16.413Z,6.23
2023-04-15T04:55:44.373Z,6.29
2023-04-15T04:58:12.587Z,6.35
2023-04-15T05:00:41.009Z,6.42
2023-04-15T05:03:09.324Z,6.53
2023-04-15T05:05:39.654Z,6.64
2023-04-15T05:08:07.905Z,6.69
2023-04-15T05:10:36.410Z,6.69
2023-04-15T05:13:04.323Z,6.67
2023-04-15T05:15:33.155Z,6.64
2023-04-15T05:18:01.453Z,6.67
2023-04-15T05:20:29.633Z,6.72
2023-04-15T05:22:57.594Z,6.78
2023-04-15T05:25:26.104Z,6.88
2023-04-15T05:27:54.108Z,6.97
2023-04-15T05:30:22.404Z,7.05
2023-04-15T05:32:50.478Z,7.12
2023-04-15T05:35:19.135Z,7.18
2023-04-15T05:37:47.194Z,7.26
2023-04-15T05:40:15.468Z,7.37
2023-04-15T05:42:43.400Z,7.47
2023-04-15T05:45:11.606Z,7.57
2023-04-15T05:47:39.562Z,7.64
2023-04-15T05:50:08.306Z,7.71
2023-04-15T05:52:37.050Z,7.81
2023-04-15T05:55:05.634Z,7.90
2023-04-15T05:57:33.662Z,7.98
2023-04-15T06:00:01.655Z,8.03
2023-04-15T06:02:37.997Z,8.09
2023-04-15T06:05:10.101Z,8.15
2023-04-15T06:07:38.919Z,8.21
2023-04-15T06:10:07.998Z,8.27
2023-04-15T06:12:36.204Z,8.31
2023-04-15T06:15:05.045Z,8.40
2023-04-15T06:17:33.053Z,8.49
2023-04-15T06:20:01.106Z,8.53
2023-04-15T06:22:29.194Z,8.55
2023-04-15T06:24:57.222Z,8.59
2023-04-15T06:27:25.259Z,8.63
2023-04-15T06:29:53.234Z,8.60
2023-04-15T06:32:21.385Z,8.62
2023-04-15T06:34:49.378Z,8.71
2023-04-15T06:37:17.254Z,8.80
2023-04-15T06:39:45.244Z,8.90
2023-04-15T06:42:13.401Z,9.01
2023-04-15T06:44:42.478Z,9.18
2023-04-15T06:47:10.488Z,9.40
2023-04-15T06:49:38.729Z,9.66
2023-04-15T06:52:06.826Z,9.92
2023-04-15T06:54:34.782Z,10.12
2023-04-15T06:57:02.909Z,10.25
2023-04-15T06:59:31.266Z,10.31
2023-04-15T07:01:59.243Z,10.33
2023-04-15T07:04:28.108Z,10.24
2023-04-15T07:06:56.913Z,10.15
2023-04-15T07:09:25.699Z,10.06
2023-04-15T07:11:53.816Z,9.99
2023-04-15T07:14:21.849Z,9.98
2023-04-15T07:16:50.000Z,10.04
2023-04-15T07:19:17.908Z,10.27
2023-04-15T07:21:45.924Z,10.55
2023-04-15T07:24:17.034Z,10.82
2023-04-15T07:26:45.368Z,11.06
2023-04-15T07:29:13.416Z,11.34
2023-04-15T07:31:42.380Z,11.58
2023-04-15T07:34:10.874Z,11.89
2023-04-15T07:36:39.030Z,12.20
2023-04-15T07:39:07.229Z,12.46
2023-04-15T07:41:35.261Z,12.72
2023-04-15T07:44:03.184Z,12.83
2023-04-15T07:46:31.168Z,12.84
2023-04-15T07:48:59.223Z,12.83
2023-04-15T07:51:27.335Z,12.83
2023-04-15T07:53:55.280Z,12.83
2023-04-15T07:56:23.485Z,12.67
2023-04-15T07:58:51.671Z,12.49
2023-04-15T08:01:19.637Z,12.47
2023-04-15T08:03:48.614Z,12.57
2023-04-15T08:06:16.800Z,12.69
2023-04-15T08:08:44.722Z,12.79
2023-04-15T08:11:13.192Z,12.90
2023-04-15T08:13:41.288Z,13.00
2023-04-15T08:16:13.944Z,13.05
2023-04-15T08:18:41.989Z,13.05
2023-04-15T08:21:10.995Z,13.11
2023-04-15T08:23:39.635Z,13.20
2023-04-15T08:26:08.823Z,13.26
2023-04-15T08:28:39.655Z,13.23
2023-04-15T08:31:08.197Z,13.12
2023-04-15T08:33:36.372Z,13.10
2023-04-15T08:36:04.897Z,13.13
2023-04-15T08:38:33.116Z,13.12
2023-04-15T08:41:08.393Z,13.13
2023-04-15T08:43:45.895Z,13.14
2023-04-15T08:46:15.678Z,13.13
2023-04-15T08:48:44.749Z,13.11
2023-04-15T08:51:16.117Z,13.11
2023-04-15T08:53:47.958Z,13.12
2023-04-15T08:56:16.999Z,13.20
2023-04-15T08:58:46.594Z,13.43
2023-04-15T09:01:15.156Z,13.65
2023-04-15T09:03:44.318Z,13.86
2023-04-15T09:06:12.941Z,14.06
2023-04-15T09:08:41.449Z,14.26
2023-04-15T09:11:09.415Z,14.27
2023-04-15T09:13:37.513Z,14.19
2023-04-15T09:16:06.772Z,14.19
2023-04-15T09:18:36.867Z,14.33
2023-04-15T09:21:14.146Z,14.61
2023-04-15T09:23:56.314Z,14.92
2023-04-15T09:26:35.327Z,15.19
2023-04-15T09:29:07.944Z,15.37
2023-04-15T09:31:37.080Z,15.59
2023-04-15T09:34:05.792Z,15.78
2023-04-15T09:36:47.034Z,15.89
2023-04-15T09:39:16.152Z,16.08
2023-04-15T09:41:45.109Z,16.25
2023-04-15T09:44:27.036Z,16.37
2023-04-15T09:46:54.949Z,16.34
2023-04-15T09:49:23.405Z,16.32
2023-04-15T09:52:03.970Z,16.36
2023-04-15T09:54:38.272Z,16.38
2023-04-15T09:57:08.144Z,16.42
2023-04-15T09:59:36.358Z,16.51
2023-04-15T10:02:06.504Z,16.57
2023-04-15T10:04:39.363Z,16.69
2023-04-15T10:07:09.803Z,16.82
2023-04-15T10:09:39.180Z,16.86
2023-04-15T10:12:07.499Z,16.78
2023-04-15T10:14:38.826Z,16.68
2023-04-15T10:17:08.364Z,16.77
2023-04-15T10:19:38.029Z,16.92
2023-04-15T10:22:06.676Z,17.09
2023-04-15T10:24:35.052Z,17.32
2023-04-15T10:27:07.085Z,17.52
2023-04-15T10:29:35.177Z,17.62
2023-04-15T10:32:03.861Z,17.73
2023-04-15T10:34:32.843Z,17.94
2023-04-15T10:37:04.806Z,18.14
2023-04-15T10:39:38.915Z,18.27
2023-04-15T10:42:15.424Z,18.35
2023-04-15T10:44:54.339Z,18.38
2023-04-15T10:47:22.717Z,18.34
2023-04-15T10:49:57.087Z,18.40
2023-04-15T10:52:27.854Z,18.50
2023-04-15T10:55:03.432Z,18.62
2023-04-15T10:57:42.403Z,18.70
2023-04-15T11:00:17.528Z,18.72
2023-04-15T11:02:52.478Z,18.70
2023-04-15T11:05:23.140Z,18.69
2023-04-15T11:07:54.404Z,18.68
2023-04-15T11:10:25.805Z,18.78
2023-04-15T11:12:58.116Z,18.93
2023-04-15T11:15:45.114Z,19.00
2023-04-15T11:18:17.977Z,19.00
2023-04-15T11:20:48.388Z,18.97
2023-04-15T11:23:19.179Z,18.91
2023-04-15T11:25:48.574Z,18.96
2023-04-15T11:28:16.927Z,18.93
2023-04-15T11:30:45.418Z,18.73
2023-04-15T11:33:14.135Z,18.45
2023-04-15T11:35:42.663Z,18.17
2023-04-15T11:38:13.872Z,17.94
2023-04-15T11:40:46.757Z,17.72
2023-04-15T11:43:21.155Z,17.66
2023-04-15T11:46:03.201Z,17.78
2023-04-15T11:48:36.228Z,17.93
2023-04-15T11:51:08.264Z,18.03
2023-04-15T11:53:42.727Z,18.18
2023-04-15T11:56:17.889Z,18.27
2023-04-15T11:58:46.711Z,18.19
2023-04-15T12:01:14.853Z,17.93
2023-04-15T12:03:45.636Z,17.71
2023-04-15T12:06:22.709Z,17.65
2023-04-15T12:09:12.133Z,17.80
2023-04-15T12:11:49.938Z,17.99
2023-04-15T12:14:17.999Z,18.18
2023-04-15T12:16:50.327Z,18.37
2023-04-15T12:19:25.384Z,18.59
2023-04-15T12:22:00.512Z,18.69
2023-04-15T12:24:31.872Z,18.73
2023-04-15T12:27:07.858Z,18.85
2023-04-15T12:29:38.687Z,18.76
2023-04-15T12:32:11.867Z,18.68
2023-04-15T12:34:45.204Z,18.60
2023-04-15T12:37:14.488Z,18.52
2023-04-15T12:39:44.335Z,18.52
2023-04-15T12:42:13.099Z,18.68
2023-04-15T12:44:41.413Z,18.76
2023-04-15T12:47:10.971Z,18.83
2023-04-15T12:49:39.804Z,18.89
2023-04-15T12:52:08.025Z,19.06
2023-04-15T12:54:36.583Z,19.20
2023-04-15T12:57:07.164Z,19.25
2023-04-15T12:59:36.589Z,19.40
2023-04-15T13:02:04.876Z,19.51
2023-04-15T13:04:33.412Z,19.51
2023-04-15T13:07:02.765Z,19.54
2023-04-15T13:09:31.400Z,19.68
2023-04-15T13:11:59.540Z,19.73
2023-04-15T13:14:27.601Z,19.80
2023-04-15T13:16:55.724Z,19.84
2023-04-15T13:19:23.829Z,19.68
2023-04-15T13:21:51.810Z,19.41
2023-04-15T13:24:19.736Z,19.16
2023-04-15T13:26:50.105Z,18.95
2023-04-15T13:29:18.353Z,18.75
2023-04-15T13:31:46.385Z,18.58
2023-04-15T13:34:14.433Z,18.50
2023-04-15T13:36:42.399Z,18.56
2023-04-15T13:39:10.361Z,18.66
2023-04-15T13:41:38.404Z,18.73
2023-04-15T13:44:07.318Z,18.79
2023-04-15T13:46:35.577Z,18.83
2023-04-15T13:49:03.599Z,18.72
2023-04-15T13:51:31.979Z,18.58
2023-04-15T13:53:59.952Z,18.24
2023-04-15T13:56:28.078Z,17.93
2023-04-15T13:58:59.035Z,17.69
2023-04-15T14:01:27.224Z,17.51
2023-04-15T14:03:56.213Z,17.52
2023-04-15T14:06:24.918Z,17.68
2023-04-15T14:08:53.157Z,17.73
2023-04-15T14:11:21.252Z,17.67
2023-04-15T14:13:49.288Z,17.55
2023-04-15T14:16:17.498Z,17.24
2023-04-15T14:18:45.544Z,16.97
2023-04-15T14:21:13.767Z,16.77
2023-04-15T14:23:41.889Z,16.64
2023-04-15T14:26:10.182Z,16.55
2023-04-15T14:28:39.484Z,16.51
2023-04-15T14:31:07.827Z,16.41
2023-04-15T14:33:36.208Z,16.36
2023-04-15T14:36:04.504Z,16.34
2023-04-15T14:38:38.459Z,16.32
2023-04-15T14:41:08.178Z,16.32
2023-04-15T14:43:36.811Z,16.29
2023-04-15T14:46:05.216Z,16.24
2023-04-15T14:48:33.286Z,16.23
2023-04-15T14:51:01.353Z,16.22
2023-04-15T14:53:29.715Z,16.15
2023-04-15T14:55:57.889Z,16.06
2023-04-15T14:58:25.962Z,15.96
2023-04-15T15:00:54.084Z,15.85
2023-04-15T15:03:22.248Z,15.79
2023-04-15T15:05:50.847Z,15.76
2023-04-15T15:08:19.055Z,15.69
2023-04-15T15:10:49.322Z,15.59
2023-04-15T15:13:19.148Z,15.47
2023-04-15T15:15:49.410Z,14.96
2023-04-15T15:18:19.267Z,14.00
2023-04-15T15:20:47.989Z,13.27
2023-04-15T15:23:16.362Z,12.83
2023-04-15T15:26:04.902Z,12.41
2023-04-15T15:28:33.055Z,12.01
2023-04-15T15:31:01.141Z,11.73
2023-04-15T15:33:30.195Z,11.55
2023-04-15T15:35:58.816Z,11.50
2023-04-15T15:38:26.848Z,11.58
2023-04-15T15:40:54.934Z,11.67
2023-04-15T15:43:23.131Z,11.83
2023-04-15T15:45:52.973Z,11.99
2023-04-15T15:48:23.971Z,12.11
2023-04-15T15:50:52.628Z,12.13
2023-04-15T15:53:40.579Z,12.21
2023-04-15T15:56:08.558Z,12.36
2023-04-15T15:58:37.027Z,12.53
2023-04-15T16:01:06.008Z,12.68
2023-04-15T16:03:34.315Z,12.80
2023-04-15T16:06:03.879Z,12.91
2023-04-15T16:08:31.916Z,13.03
2023-04-15T16:11:00.177Z,13.17
2023-04-15T16:13:28.163Z,13.32
2023-04-15T16:15:56.186Z,13.48
2023-04-15T16:18:24.278Z,13.65
2023-04-15T16:20:52.274Z,13.79
2023-04-15T16:23:20.668Z,13.93
2023-04-15T16:25:50.560Z,14.08
2023-04-15T16:28:26.415Z,14.21
2023-04-15T16:30:57.258Z,14.38
2023-04-15T16:33:26.708Z,14.45
2023-04-15T16:35:54.744Z,14.40
2023-04-15T16:38:22.836Z,14.28
2023-04-15T16:40:52.004Z,14.12
2023-04-15T16:43:20.195Z,13.96
2023-04-15T16:45:51.563Z,13.81
2023-04-15T16:48:20.719Z,13.64
2023-04-15T16:50:49.433Z,13.45
2023-04-15T16:53:17.562Z,13.27
2023-04-15T16:55:45.748Z,13.11
2023-04-15T16:58:13.789Z,12.97
2023-04-15T17:00:41.805Z,12.87
2023-04-15T17:03:09.975Z,12.78
2023-04-15T17:05:38.380Z,12.70
2023-04-15T17:08:06.447Z,12.62
2023-04-15T17:10:34.576Z,12.52
2023-04-15T17:13:02.488Z,12.40
2023-04-15T17:15:30.790Z,12.28
2023-04-15T17:17:58.814Z,12.17
2023-04-15T17:20:26.846Z,12.07
2023-04-15T17:22:55.078Z,11.97
2023-04-15T17:25:23.658Z,11.86
2023-04-15T17:27:51.550Z,11.75
2023-04-15T17:30:19.545Z,11.63
2023-04-15T17:32:47.572Z,11.52
2023-04-15T17:35:15.615Z,11.43
2023-04-15T17:37:43.681Z,11.37
2023-04-15T17:40:12.164Z,11.31
2023-04-15T17:42:40.751Z,11.24
2023-04-15T17:45:09.312Z,11.17
2023-04-15T17:47:37.609Z,11.09
2023-04-15T17:50:08.075Z,11.04
2023-04-15T17:52:36.041Z,10.99
2023-04-15T17:55:04.365Z,10.93
2023-04-15T17:57:32.367Z,10.90
2023-04-15T18:00:00.470Z,10.89
2023-04-15T18:02:28.816Z,10.88
2023-04-15T18:04:57.273Z,10.88
2023-04-15T18:07:25.689Z,10.88
2023-04-15T18:09:55.864Z,10.88
2023-04-15T18:12:23.930Z,10.87
2023-04-15T18:14:51.898Z,10.85
2023-04-15T18:17:20.639Z,10.83
2023-04-15T18:19:48.902Z,10.81
2023-04-15T18:22:17.016Z,10.76
2023-04-15T18:24:44.919Z,10.71
2023-04-15T18:27:12.927Z,10.68
2023-04-15T18:29:41.516Z,10.64
2023-04-15T18:32:10.121Z,10.62
2023-04-15T18:34:38.450Z,10.56
2023-04-15T18:37:06.454Z,10.51
2023-04-15T18:39:34.343Z,10.50
2023-04-15T18:42:02.373Z,10.48
2023-04-15T18:44:30.454Z,10.44
2023-04-15T18:46:58.383Z,10.43
2023-04-15T18:49:27.542Z,10.41
2023-04-15T18:51:55.612Z,10.40
2023-04-15T18:54:23.658Z,10.39
2023-04-15T18:56:52.406Z,10.38
2023-04-15T18:59:29.460Z,10.37
2023-04-15T19:01:59.928Z,10.37
2023-04-15T19:04:31.355Z,10.36
2023-04-15T19:06:59.637Z,10.32
2023-04-15T19:09:28.847Z,10.30
2023-04-15T19:11:57.676Z,10.28
2023-04-15T19:14:25.783Z,10.26
2023-04-15T19:16:53.752Z,10.22
2023-04-15T19:19:21.734Z,10.17
2023-04-15T19:21:50.421Z,10.11
2023-04-15T19:24:19.667Z,10.04
2023-04-15T19:26:50.381Z,9.99
2023-04-15T19:29:19.087Z,9.95
2023-04-15T19:31:47.075Z,9.92
2023-04-15T19:34:15.456Z,9.88
2023-04-15T19:36:43.556Z,9.88
2023-04-15T19:39:11.700Z,9.89
2023-04-15T19:41:39.702Z,9.91
2023-04-15T19:44:07.781Z,9.93
2023-04-15T19:46:35.875Z,9.93
2023-04-15T19:49:04.135Z,9.93
2023-04-15T19:51:32.696Z,9.94
2023-04-15T19:54:00.770Z,9.96
2023-04-15T19:56:29.386Z,9.98
2023-04-15T19:58:57.325Z,10.00
2023-04-15T20:01:25.403Z,10.03
2023-04-15T20:03:54.546Z,10.07
2023-04-15T20:06:22.668Z,10.10
2023-04-15T20:08:50.894Z,10.12
2023-04-15T20:11:18.998Z,10.14
2023-04-15T20:13:47.008Z,10.15
2023-04-15T20:16:15.180Z,10.13
2023-04-15T20:18:43.072Z,10.10
2023-04-15T20:21:11.154Z,10.07
2023-04-15T20:23:40.863Z,10.03
2023-04-15T20:26:08.808Z,9.98
2023-04-15T20:28:36.751Z,9.93
2023-04-15T20:31:04.631Z,9.89
2023-04-15T20:33:32.814Z,9.87
2023-04-15T20:36:01.229Z,9.85
2023-04-15T20:38:29.163Z,9.82
2023-04-15T20:40:58.176Z,9.76
2023-04-15T20:43:26.178Z,9.69
2023-04-15T20:45:56.622Z,9.64
2023-04-15T20:48:26.292Z,9.59
2023-04-15T20:50:54.325Z,9.54
2023-04-15T20:53:22.508Z,9.49
2023-04-15T20:55:50.706Z,9.44
2023-04-15T20:58:18.626Z,9.40
2023-04-15T21:00:47.230Z,9.35
2023-04-15T21:03:15.500Z,9.32
2023-04-15T21:05:43.556Z,9.28
2023-04-15T21:08:13.996Z,9.24
2023-04-15T21:10:41.863Z,9.21
2023-04-15T21:13:09.835Z,9.19
2023-04-15T21:15:37.764Z,9.18
2023-04-15T21:18:06.037Z,9.16
2023-04-15T21:20:33.977Z,9.17
2023-04-15T21:23:02.009Z,9.18
2023-04-15T21:25:29.976Z,9.19
2023-04-15T21:27:58.470Z,9.19
2023-04-15T21:30:26.602Z,9.19
2023-04-15T21:32:55.913Z,9.19
2023-04-15T21:35:23.883Z,9.17
2023-04-15T21:37:51.883Z,9.14
2023-04-15T21:40:20.294Z,9.11
2023-04-15T21:42:49.262Z,9.06
2023-04-15T21:45:17.425Z,9.01
2023-04-15T21:48:05.349Z,8.99
2023-04-15T21:50:33.132Z,8.99
2023-04-15T21:53:01.158Z,8.97
2023-04-15T21:55:29.225Z,8.94
2023-04-15T21:57:57.202Z,8.91
2023-04-15T22:00:25.202Z,8.90
2023-04-15T22:02:53.341Z,8.88
2023-04-15T22:05:21.424Z,8.84
2023-04-15T22:07:49.487Z,8.80
2023-04-15T22:10:17.562Z,8.76
2023-04-15T22:12:45.444Z,8.71
2023-04-15T22:15:13.711Z,8.67
2023-04-15T22:17:41.751Z,8.60
2023-04-15T22:20:10.362Z,8.53
2023-04-15T22:22:44.165Z,8.47
2023-04-15T22:25:12.910Z,8.40
2023-04-15T22:27:40.879Z,8.33
2023-04-15T22:30:10.571Z,8.25
2023-04-15T22:32:38.556Z,8.14
2023-04-15T22:35:06.924Z,8.05
2023-04-15T22:37:35.277Z,7.94
2023-04-15T22:40:03.532Z,7.85
2023-04-15T22:42:31.480Z,7.76
2023-04-15T22:44:59.357Z,7.70
2023-04-15T22:47:27.400Z,7.64
2023-04-15T22:49:55.327Z,7.56
2023-04-15T22:52:30.175Z,7.47
2023-04-15T22:54:59.885Z,7.40
2023-04-15T22:57:28.666Z,7.34
2023-04-15T22:59:56.708Z,7.29
2023-04-15T23:02:24.938Z,7.24
2023-04-15T23:04:53.185Z,7.18
2023-04-15T23:07:21.349Z,7.14
2023-04-15T23:09:49.323Z,7.09
2023-04-15T23:12:17.289Z,7.05
2023-04-15T23:14:45.280Z,7.02
2023-04-15T23:17:13.183Z,7.00
2023-04-15T23:19:41.221Z,6.96
2023-04-15T23:22:10.734Z,6.92
2023-04-15T23:24:38.762Z,6.88
2023-04-15T23:27:06.702Z,6.84
2023-04-15T23:29:34.611Z,6.79
2023-04-15T23:32:02.666Z,6.75
2023-04-15T23:34:30.852Z,6.71
2023-04-15T23:36:58.758Z,6.67
2023-04-15T23:39:26.786Z,6.64
2023-04-15T23:41:54.913Z,6.61
2023-04-15T23:44:23.377Z,6.57
2023-04-15T23:46:51.468Z,6.54
2023-04-15T23:49:20.490Z,6.50
2023-04-15T23:51:48.800Z,6.47
2023-04-15T23:54:16.692Z,6.46
2023-04-15T23:56:44.545Z,6.46
2023-04-15T23:59:12.570Z,6.45
